createdAt,value
2018-05-27T00:00:01.174Z,56.14
2018-05-27T00:00:27.315Z,55.94
2018-05-27T00:00:53.453Z,56.04
2018-05-27T00:01:19.598Z,55.94
2018-05-27T00:01:45.740Z,55.94
2018-05-27T00:02:11.880Z,55.85
2018-05-27T00:02:38.062Z,55.85
2018-05-27T00:03:04.213Z,55.85
2018-05-27T00:03:30.349Z,55.94
2018-05-27T00:03:56.489Z,56.33
2018-05-27T00:04:22.629Z,56.24
2018-05-27T00:04:48.767Z,56.33
2018-05-27T00:05:14.935Z,56.24
2018-05-27T00:05:41.099Z,55.94
2018-05-27T00:06:07.239Z,56.33
2018-05-27T00:06:33.379Z,56.43
2018-05-27T00:06:59.519Z,56.33
2018-05-27T00:07:25.667Z,56.33
2018-05-27T00:07:51.803Z,56.24
2018-05-27T00:08:17.964Z,56.24
2018-05-27T00:08:44.112Z,56.43
2018-05-27T00:09:10.250Z,56.33
2018-05-27T00:09:36.391Z,56.04
2018-05-27T00:10:02.587Z,56.14
2018-05-27T00:10:28.727Z,56.33
2018-05-27T00:10:54.866Z,56.24
2018-05-27T00:11:21.030Z,55.94
2018-05-27T00:11:47.164Z,56.04
2018-05-27T00:12:13.335Z,56.14
2018-05-27T00:12:39.493Z,56.24
2018-05-27T00:13:05.616Z,56.52
2018-05-27T00:13:31.776Z,55.94
2018-05-27T00:13:57.974Z,56.14
2018-05-27T00:14:24.058Z,56.24
2018-05-27T00:14:50.203Z,56.14
2018-05-27T00:15:16.344Z,56.14
2018-05-27T00:15:42.481Z,56.33
2018-05-27T00:16:08.625Z,56.62
2018-05-27T00:16:34.764Z,56.43
2018-05-27T00:17:00.913Z,56.33
2018-05-27T00:17:27.053Z,56.91
2018-05-27T00:17:53.196Z,56.81
2018-05-27T00:18:19.358Z,56.81
2018-05-27T00:18:45.506Z,56.72
2018-05-27T00:19:11.664Z,56.91
2018-05-27T00:19:37.808Z,57.2
2018-05-27T00:20:03.945Z,57.29
2018-05-27T00:20:30.081Z,56.91
2018-05-27T00:20:58.467Z,57.29
2018-05-27T00:21:24.605Z,57.2
2018-05-27T00:21:50.758Z,57.2
2018-05-27T00:22:16.913Z,57.1
2018-05-27T00:22:43.074Z,57.2
2018-05-27T00:23:09.215Z,57.2
2018-05-27T00:23:35.369Z,57.1
2018-05-27T00:24:01.508Z,56.91
2018-05-27T00:24:27.645Z,56.81
2018-05-27T00:24:53.790Z,56.72
2018-05-27T00:25:19.932Z,56.62
2018-05-27T00:25:46.098Z,56.81
2018-05-27T00:26:12.234Z,57.01
2018-05-27T00:26:38.394Z,57.1
2018-05-27T00:27:04.535Z,56.91
2018-05-27T00:27:30.715Z,57.29
2018-05-27T00:27:56.856Z,56.91
2018-05-27T00:28:23.000Z,57.2
2018-05-27T00:28:49.163Z,57.2
2018-05-27T00:29:15.306Z,57.2
2018-05-27T00:29:41.444Z,57.29
2018-05-27T00:30:07.581Z,57.01
2018-05-27T00:30:33.734Z,57.1
2018-05-27T00:30:59.879Z,56.81
2018-05-27T00:31:26.033Z,56.62
2018-05-27T00:31:52.176Z,56.72
2018-05-27T00:32:18.328Z,56.72
2018-05-27T00:32:44.481Z,57.01
2018-05-27T00:33:10.625Z,56.62
2018-05-27T00:33:36.761Z,56.81
2018-05-27T00:34:02.927Z,56.81
2018-05-27T00:34:29.087Z,57.1
2018-05-27T00:34:55.224Z,57.2
2018-05-27T00:35:21.368Z,57.1
2018-05-27T00:35:47.507Z,57.2
2018-05-27T00:36:13.652Z,56.72
2018-05-27T00:36:39.796Z,56.81
2018-05-27T00:37:05.936Z,56.72
2018-05-27T00:37:32.082Z,57.01
2018-05-27T00:37:58.214Z,57.1
2018-05-27T00:38:24.365Z,57.01
2018-05-27T00:38:50.517Z,57.1
2018-05-27T00:39:16.681Z,56.91
2018-05-27T00:39:42.817Z,57.29
2018-05-27T00:40:08.960Z,56.81
2018-05-27T00:40:35.095Z,56.81
2018-05-27T00:41:01.240Z,57.29
2018-05-27T00:41:27.379Z,57.23
2018-05-27T00:41:53.515Z,56.94
2018-05-27T00:42:19.657Z,56.81
2018-05-27T00:42:45.799Z,56.56
2018-05-27T00:43:11.936Z,56.74
2018-05-27T00:43:38.077Z,56.36
2018-05-27T00:44:04.215Z,56.07
2018-05-27T00:44:30.357Z,56.56
2018-05-27T00:44:56.497Z,56.07
2018-05-27T00:45:22.661Z,56.26
2018-05-27T00:45:48.808Z,56.46
2018-05-27T00:46:14.943Z,56.26
2018-05-27T00:46:41.081Z,56.26
2018-05-27T00:47:07.221Z,56.07
2018-05-27T00:47:33.355Z,56.07
2018-05-27T00:47:59.520Z,56.07
2018-05-27T00:48:25.670Z,56.33
2018-05-27T00:48:51.796Z,56.33
2018-05-27T00:49:17.958Z,57.01
2018-05-27T00:49:44.122Z,56.72
2018-05-27T00:50:10.286Z,56.84
2018-05-27T00:50:36.424Z,56.72
2018-05-27T00:51:02.564Z,56.81
2018-05-27T00:51:28.706Z,57.2
2018-05-27T00:51:54.845Z,56.91
2018-05-27T00:52:20.986Z,56.91
2018-05-27T00:52:47.162Z,56.81
2018-05-27T00:53:13.294Z,56.81
2018-05-27T00:53:39.430Z,56.91
2018-05-27T00:54:05.567Z,57.1
2018-05-27T00:54:31.710Z,57.23
2018-05-27T00:54:57.860Z,57.2
2018-05-27T00:55:23.991Z,56.81
2018-05-27T00:55:50.132Z,56.91
2018-05-27T00:56:16.272Z,56.72
2018-05-27T00:56:42.413Z,56.81
2018-05-27T00:57:08.559Z,57.2
2018-05-27T00:57:34.693Z,57.29
2018-05-27T00:58:00.859Z,57.2
2018-05-27T00:58:27.021Z,57.39
2018-05-27T00:58:53.170Z,57.68
2018-05-27T00:59:19.303Z,57.2
2018-05-27T00:59:45.443Z,57.39
2018-05-27T01:00:11.581Z,57.97
2018-05-27T01:00:37.720Z,58.07
2018-05-27T01:01:03.910Z,57.68
2018-05-27T01:01:30.073Z,57.29
2018-05-27T01:01:56.235Z,57.75
2018-05-27T01:02:22.401Z,57.56
2018-05-27T01:02:48.542Z,57.85
2018-05-27T01:03:14.706Z,57.49
2018-05-27T01:03:40.846Z,57.97
2018-05-27T01:04:07.013Z,57.97
2018-05-27T01:04:33.153Z,57.75
2018-05-27T01:04:59.293Z,57.29
2018-05-27T01:05:25.432Z,57.75
2018-05-27T01:05:51.579Z,57.68
2018-05-27T01:06:17.722Z,58.33
2018-05-27T01:06:43.905Z,57.97
2018-05-27T01:07:10.073Z,58.14
2018-05-27T01:07:36.217Z,58.14
2018-05-27T01:08:02.359Z,57.85
2018-05-27T01:08:28.505Z,58.14
2018-05-27T01:08:54.644Z,58.04
2018-05-27T01:09:20.787Z,58.42
2018-05-27T01:09:46.928Z,58.07
2018-05-27T01:10:13.075Z,57.97
2018-05-27T01:10:39.212Z,57.94
2018-05-27T01:11:05.357Z,58.14
2018-05-27T01:11:31.516Z,58.04
2018-05-27T01:11:57.677Z,58.04
2018-05-27T01:12:23.819Z,57.94
2018-05-27T01:12:49.966Z,58.04
2018-05-27T01:13:16.110Z,58.33
2018-05-27T01:13:42.255Z,58.62
2018-05-27T01:14:08.415Z,58.62
2018-05-27T01:14:34.604Z,58.72
2018-05-27T01:15:00.746Z,58.62
2018-05-27T01:15:26.884Z,58.52
2018-05-27T01:15:53.024Z,57.94
2018-05-27T01:16:19.170Z,57.94
2018-05-27T01:16:45.335Z,58.42
2018-05-27T01:17:11.477Z,58.33
2018-05-27T01:17:37.644Z,58.23
2018-05-27T01:18:03.812Z,58.14
2018-05-27T01:18:29.950Z,58.62
2018-05-27T01:18:56.090Z,58.62
2018-05-27T01:19:22.254Z,58.42
2018-05-27T01:19:48.415Z,58.52
2018-05-27T01:20:14.555Z,58.81
2018-05-27T01:20:40.699Z,58.62
2018-05-27T01:21:06.837Z,58.72
2018-05-27T01:21:32.996Z,58.52
2018-05-27T01:21:59.141Z,58.42
2018-05-27T01:22:25.299Z,58.72
2018-05-27T01:22:51.454Z,58.62
2018-05-27T01:23:17.593Z,58.42
2018-05-27T01:23:43.742Z,58.62
2018-05-27T01:24:09.877Z,58.62
2018-05-27T01:24:36.022Z,58.62
2018-05-27T01:25:02.153Z,58.72
2018-05-27T01:25:28.295Z,58.52
2018-05-27T01:25:54.427Z,58.36
2018-05-27T01:26:20.570Z,58.42
2018-05-27T01:26:46.727Z,58.17
2018-05-27T01:27:12.863Z,58.26
2018-05-27T01:27:39.003Z,57.85
2018-05-27T01:28:05.141Z,57.94
2018-05-27T01:28:31.284Z,58.17
2018-05-27T01:28:57.428Z,57.85
2018-05-27T01:29:23.567Z,58.23
2018-05-27T01:29:49.706Z,58.14
2018-05-27T01:30:15.854Z,57.85
2018-05-27T01:30:41.990Z,57.94
2018-05-27T01:31:08.131Z,58.23
2018-05-27T01:31:34.268Z,57.94
2018-05-27T01:32:00.418Z,58.26
2018-05-27T01:32:26.548Z,57.94
2018-05-27T01:32:52.696Z,57.94
2018-05-27T01:33:18.842Z,58.52
2018-05-27T01:33:44.970Z,59.03
2018-05-27T01:34:11.125Z,58.23
2018-05-27T01:34:37.273Z,58.52
2018-05-27T01:35:03.417Z,58.72
2018-05-27T01:35:29.558Z,58.62
2018-05-27T01:35:55.699Z,58.52
2018-05-27T01:36:21.833Z,58.62
2018-05-27T01:36:47.975Z,58.62
2018-05-27T01:37:14.123Z,58.52
2018-05-27T01:37:40.261Z,58.81
2018-05-27T01:38:06.398Z,58.42
2018-05-27T01:38:32.540Z,58.55
2018-05-27T01:38:58.684Z,58.91
2018-05-27T01:39:24.817Z,58.62
2018-05-27T01:39:50.981Z,58.42
2018-05-27T01:40:17.146Z,58.52
2018-05-27T01:40:43.311Z,58.52
2018-05-27T01:41:09.498Z,58.52
2018-05-27T01:41:35.643Z,59.2
2018-05-27T01:42:01.781Z,59
2018-05-27T01:42:27.946Z,59.1
2018-05-27T01:42:54.084Z,59.1
2018-05-27T01:43:20.222Z,59.1
2018-05-27T01:43:46.392Z,58.72
2018-05-27T01:44:12.551Z,58.52
2018-05-27T01:44:38.693Z,58.81
2018-05-27T01:45:04.839Z,58.91
2018-05-27T01:45:30.983Z,58.72
2018-05-27T01:45:57.124Z,58.62
2018-05-27T01:46:23.260Z,59.2
2018-05-27T01:46:49.426Z,58.81
2018-05-27T01:47:15.567Z,58.81
2018-05-27T01:47:41.725Z,58.62
2018-05-27T01:48:07.873Z,58.72
2018-05-27T01:48:34.010Z,58.81
2018-05-27T01:49:00.149Z,59
2018-05-27T01:49:26.292Z,58.91
2018-05-27T01:49:52.450Z,59.2
2018-05-27T01:50:18.596Z,58.81
2018-05-27T01:50:44.733Z,59
2018-05-27T01:51:10.872Z,59.2
2018-05-27T01:51:37.009Z,59
2018-05-27T01:52:03.159Z,59.2
2018-05-27T01:52:29.293Z,59.1
2018-05-27T01:52:55.458Z,59.3
2018-05-27T01:53:21.605Z,59.1
2018-05-27T01:53:47.739Z,59.39
2018-05-27T01:54:13.879Z,59.1
2018-05-27T01:54:40.044Z,59.2
2018-05-27T01:55:06.218Z,58.78
2018-05-27T01:55:32.363Z,59
2018-05-27T01:55:58.502Z,59.27
2018-05-27T01:56:24.637Z,59.55
2018-05-27T01:56:50.778Z,59.07
2018-05-27T01:57:16.914Z,59.27
2018-05-27T01:57:43.053Z,59.1
2018-05-27T01:58:09.250Z,59.2
2018-05-27T01:58:35.390Z,58.91
2018-05-27T01:59:01.555Z,59.07
2018-05-27T01:59:27.698Z,59.27
2018-05-27T01:59:53.841Z,59.75
2018-05-27T02:00:19.974Z,59.75
2018-05-27T02:00:46.117Z,59.65
2018-05-27T02:01:12.257Z,59.55
2018-05-27T02:01:38.402Z,59.84
2018-05-27T02:02:04.544Z,59.94
2018-05-27T02:02:30.711Z,59.75
2018-05-27T02:02:56.847Z,59.75
2018-05-27T02:03:23.001Z,59.84
2018-05-27T02:03:49.145Z,59.75
2018-05-27T02:04:15.292Z,60.03
2018-05-27T02:04:41.455Z,60.23
2018-05-27T02:05:07.594Z,60.13
2018-05-27T02:05:33.736Z,59.94
2018-05-27T02:05:59.918Z,60.32
2018-05-27T02:06:26.059Z,60.03
2018-05-27T02:06:52.201Z,60.23
2018-05-27T02:07:18.333Z,60.13
2018-05-27T02:07:44.491Z,60.03
2018-05-27T02:08:10.695Z,60.42
2018-05-27T02:08:36.836Z,60.03
2018-05-27T02:09:02.976Z,60.13
2018-05-27T02:09:29.135Z,60.03
2018-05-27T02:09:55.283Z,60.23
2018-05-27T02:10:21.474Z,59.75
2018-05-27T02:10:47.612Z,59.94
2018-05-27T02:11:13.769Z,59.94
2018-05-27T02:11:39.909Z,59.94
2018-05-27T02:12:06.111Z,60.13
2018-05-27T02:12:32.278Z,60.23
2018-05-27T02:12:58.415Z,60.71
2018-05-27T02:13:24.556Z,60.42
2018-05-27T02:13:50.692Z,60.8
2018-05-27T02:14:16.861Z,60.32
2018-05-27T02:14:43.018Z,60.13
2018-05-27T02:15:09.160Z,60.03
2018-05-27T02:15:35.308Z,59.94
2018-05-27T02:16:01.447Z,60.52
2018-05-27T02:16:27.591Z,60.52
2018-05-27T02:16:53.752Z,60.9
2018-05-27T02:17:19.882Z,60.9
2018-05-27T02:17:46.022Z,60.61
2018-05-27T02:18:12.215Z,60.71
2018-05-27T02:18:38.373Z,60.52
2018-05-27T02:19:04.515Z,60.61
2018-05-27T02:19:30.652Z,60.32
2018-05-27T02:19:56.788Z,60.71
2018-05-27T02:20:22.935Z,60.52
2018-05-27T02:20:49.080Z,60.61
2018-05-27T02:21:15.244Z,60.71
2018-05-27T02:21:41.387Z,60.03
2018-05-27T02:22:07.513Z,60.03
2018-05-27T02:22:33.663Z,60.03
2018-05-27T02:22:59.796Z,59.94
2018-05-27T02:23:25.931Z,59.94
2018-05-27T02:23:52.068Z,60.42
2018-05-27T02:24:18.210Z,60.61
2018-05-27T02:24:44.354Z,60.61
2018-05-27T02:25:10.487Z,60.71
2018-05-27T02:25:36.633Z,60.52
2018-05-27T02:26:02.796Z,60.8
2018-05-27T02:26:28.940Z,60.8
2018-05-27T02:26:55.084Z,60.52
2018-05-27T02:27:21.227Z,60.8
2018-05-27T02:27:47.361Z,60.8
2018-05-27T02:28:13.564Z,60.8
2018-05-27T02:28:39.727Z,60.32
2018-05-27T02:29:05.882Z,60.32
2018-05-27T02:29:32.027Z,60.61
2018-05-27T02:29:58.164Z,60.8
2018-05-27T02:30:24.319Z,60.52
2018-05-27T02:30:50.469Z,60.42
2018-05-27T02:31:16.637Z,60.8
2018-05-27T02:31:42.765Z,60.42
2018-05-27T02:32:08.927Z,60.32
2018-05-27T02:32:35.100Z,60.61
2018-05-27T02:33:01.263Z,60.8
2018-05-27T02:33:27.452Z,60.61
2018-05-27T02:33:53.626Z,60.61
2018-05-27T02:34:19.785Z,60.23
2018-05-27T02:34:45.977Z,60.52
2018-05-27T02:35:12.141Z,60.9
2018-05-27T02:35:38.309Z,61.45
2018-05-27T02:36:04.469Z,61.45
2018-05-27T02:36:30.627Z,61.25
2018-05-27T02:36:56.830Z,61.35
2018-05-27T02:37:23.022Z,61.25
2018-05-27T02:37:49.181Z,61.48
2018-05-27T02:38:15.387Z,61.38
2018-05-27T02:38:41.554Z,61.58
2018-05-27T02:39:07.720Z,61.48
2018-05-27T02:39:33.863Z,61.38
2018-05-27T02:40:00.020Z,61.48
2018-05-27T02:40:26.186Z,61.35
2018-05-27T02:40:52.323Z,60.71
2018-05-27T02:41:18.487Z,60.8
2018-05-27T02:41:44.651Z,61.19
2018-05-27T02:42:10.813Z,61.1
2018-05-27T02:42:36.958Z,61.45
2018-05-27T02:43:03.103Z,61.38
2018-05-27T02:43:29.286Z,61.58
2018-05-27T02:43:55.430Z,61.58
2018-05-27T02:44:21.605Z,61.48
2018-05-27T02:44:47.732Z,61.07
2018-05-27T02:45:13.899Z,61.25
2018-05-27T02:45:40.069Z,60.97
2018-05-27T02:46:06.225Z,61.16
2018-05-27T02:46:32.394Z,61.16
2018-05-27T02:46:58.543Z,61.07
2018-05-27T02:47:24.733Z,61.16
2018-05-27T02:47:50.874Z,61.74
2018-05-27T02:48:17.075Z,61.25
2018-05-27T02:48:43.162Z,61.19
2018-05-27T02:49:09.298Z,61.58
2018-05-27T02:49:35.485Z,61.1
2018-05-27T02:50:01.626Z,61.38
2018-05-27T02:50:27.759Z,61.55
2018-05-27T02:50:53.923Z,61.58
2018-05-27T02:51:20.131Z,61.48
2018-05-27T02:51:46.325Z,61.29
2018-05-27T02:52:12.523Z,61.29
2018-05-27T02:52:38.735Z,61.48
2018-05-27T02:53:04.895Z,61.29
2018-05-27T02:53:31.035Z,61.1
2018-05-27T02:53:57.178Z,61.29
2018-05-27T02:54:23.361Z,61.38
2018-05-27T02:54:49.550Z,61.48
2018-05-27T02:55:15.719Z,61.38
2018-05-27T02:55:41.886Z,61.38
2018-05-27T02:56:08.021Z,61.29
2018-05-27T02:56:34.196Z,61.1
2018-05-27T02:57:00.326Z,61.38
2018-05-27T02:57:26.525Z,61.38
2018-05-27T02:57:52.720Z,61.48
2018-05-27T02:58:18.863Z,61.48
2018-05-27T02:58:45.047Z,61.38
2018-05-27T02:59:11.191Z,61.58
2018-05-27T02:59:37.327Z,61.38
2018-05-27T03:00:03.492Z,61.1
2018-05-27T03:00:29.673Z,60.9
2018-05-27T03:00:55.864Z,60.71
2018-05-27T03:01:22.048Z,60.71
2018-05-27T03:01:48.211Z,61
2018-05-27T03:02:14.371Z,60.8
2018-05-27T03:02:40.510Z,60.42
2018-05-27T03:03:06.656Z,60.61
2018-05-27T03:03:32.799Z,60.23
2018-05-27T03:03:58.959Z,60.52
2018-05-27T03:04:25.128Z,60.52
2018-05-27T03:04:51.313Z,60.52
2018-05-27T03:05:17.475Z,60.32
2018-05-27T03:05:43.637Z,60.61
2018-05-27T03:06:09.855Z,60.52
2018-05-27T03:06:36.012Z,60.23
2018-05-27T03:07:02.152Z,60.32
2018-05-27T03:07:28.341Z,60.52
2018-05-27T03:07:54.534Z,60.52
2018-05-27T03:08:20.690Z,60.61
2018-05-27T03:08:46.873Z,60.71
2018-05-27T03:09:13.064Z,60.52
2018-05-27T03:09:39.236Z,60.52
2018-05-27T03:10:05.414Z,60.61
2018-05-27T03:10:31.551Z,60.71
2018-05-27T03:10:57.790Z,60.32
2018-05-27T03:11:23.949Z,60.32
2018-05-27T03:11:50.121Z,60.61
2018-05-27T03:12:16.281Z,60.32
2018-05-27T03:12:42.422Z,60.52
2018-05-27T03:13:08.562Z,60.71
2018-05-27T03:13:34.735Z,60.61
2018-05-27T03:14:00.879Z,60.42
2018-05-27T03:14:27.018Z,60.42
2018-05-27T03:14:53.177Z,60.23
2018-05-27T03:15:19.323Z,60.61
2018-05-27T03:15:45.489Z,60.61
2018-05-27T03:16:11.660Z,60.52
2018-05-27T03:16:37.807Z,60.61
2018-05-27T03:17:03.962Z,60.32
2018-05-27T03:17:30.156Z,60.8
2018-05-27T03:17:56.324Z,61.29
2018-05-27T03:18:22.470Z,61.29
2018-05-27T03:18:48.667Z,61.38
2018-05-27T03:19:14.832Z,61.58
2018-05-27T03:19:40.972Z,61.48
2018-05-27T03:20:07.112Z,60.9
2018-05-27T03:20:33.251Z,60.8
2018-05-27T03:20:59.394Z,61.38
2018-05-27T03:21:25.560Z,60.9
2018-05-27T03:21:51.711Z,60.8
2018-05-27T03:22:17.849Z,60.32
2018-05-27T03:22:43.999Z,60.8
2018-05-27T03:23:10.165Z,60.71
2018-05-27T03:23:36.330Z,60.61
2018-05-27T03:24:02.498Z,60.8
2018-05-27T03:24:28.634Z,61.58
2018-05-27T03:24:54.825Z,61.19
2018-05-27T03:25:20.969Z,61.38
2018-05-27T03:25:47.121Z,61.07
2018-05-27T03:26:13.264Z,60.87
2018-05-27T03:26:39.394Z,61.65
2018-05-27T03:27:05.528Z,61.55
2018-05-27T03:27:31.669Z,62.03
2018-05-27T03:27:57.812Z,61.93
2018-05-27T03:28:23.955Z,61.83
2018-05-27T03:28:50.090Z,62.06
2018-05-27T03:29:16.231Z,61.55
2018-05-27T03:29:42.375Z,62.12
2018-05-27T03:30:08.523Z,61.55
2018-05-27T03:30:34.709Z,61.68
2018-05-27T03:31:00.874Z,61.93
2018-05-27T03:31:27.020Z,61.68
2018-05-27T03:31:53.183Z,62.06
2018-05-27T03:32:19.316Z,61.58
2018-05-27T03:32:45.462Z,61.48
2018-05-27T03:33:11.600Z,61.29
2018-05-27T03:33:37.768Z,61.68
2018-05-27T03:34:03.907Z,61.38
2018-05-27T03:34:30.057Z,61.58
2018-05-27T03:34:56.215Z,61.68
2018-05-27T03:35:22.368Z,61.96
2018-05-27T03:35:48.497Z,61.68
2018-05-27T03:36:14.671Z,61.58
2018-05-27T03:36:40.816Z,61.58
2018-05-27T03:37:06.979Z,61.48
2018-05-27T03:37:33.136Z,61.58
2018-05-27T03:37:59.284Z,61.58
2018-05-27T03:38:25.423Z,61.68
2018-05-27T03:38:51.561Z,62.12
2018-05-27T03:39:17.702Z,62.12
2018-05-27T03:39:43.837Z,62.22
2018-05-27T03:40:10.056Z,62.51
2018-05-27T03:40:36.183Z,62.51
2018-05-27T03:41:02.321Z,62.41
2018-05-27T03:41:28.457Z,62.51
2018-05-27T03:41:54.603Z,62.6
2018-05-27T03:42:20.734Z,62.41
2018-05-27T03:42:46.878Z,62.41
2018-05-27T03:43:13.018Z,62.8
2018-05-27T03:43:39.156Z,62.8
2018-05-27T03:44:05.298Z,62.8
2018-05-27T03:44:31.436Z,62.6
2018-05-27T03:44:57.575Z,62.6
2018-05-27T03:45:23.713Z,62.8
2018-05-27T03:45:49.854Z,62.9
2018-05-27T03:46:16.022Z,62.41
2018-05-27T03:46:42.162Z,62.51
2018-05-27T03:47:08.306Z,62.99
2018-05-27T03:47:34.466Z,63.38
2018-05-27T03:48:00.633Z,63.28
2018-05-27T03:48:26.773Z,62.99
2018-05-27T03:48:52.942Z,62.99
2018-05-27T03:49:19.085Z,63.28
2018-05-27T03:49:45.227Z,63.09
2018-05-27T03:50:11.367Z,63.25
2018-05-27T03:50:37.499Z,63.25
2018-05-27T03:51:03.664Z,63.64
2018-05-27T03:51:29.837Z,63.44
2018-05-27T03:51:55.972Z,63.64
2018-05-27T03:52:22.143Z,63.54
2018-05-27T03:52:48.281Z,63.82
2018-05-27T03:53:14.421Z,63.54
2018-05-27T03:53:40.588Z,63.92
2018-05-27T03:54:06.725Z,64.02
2018-05-27T03:54:32.890Z,64.12
2018-05-27T03:54:59.035Z,64.12
2018-05-27T03:55:25.166Z,63.82
2018-05-27T03:55:51.306Z,63.92
2018-05-27T03:56:17.511Z,64.21
2018-05-27T03:56:43.680Z,64.21
2018-05-27T03:57:09.861Z,64.21
2018-05-27T03:57:36.025Z,64.21
2018-05-27T03:58:02.158Z,64.02
2018-05-27T03:58:28.322Z,64.5
2018-05-27T03:58:54.466Z,63.92
2018-05-27T03:59:20.604Z,64.02
2018-05-27T03:59:46.746Z,64.69
2018-05-27T04:00:12.922Z,64.5
2018-05-27T04:00:39.061Z,65.08
2018-05-27T04:01:05.192Z,64.98
2018-05-27T04:01:31.341Z,64.69
2018-05-27T04:01:57.485Z,64.69
2018-05-27T04:02:23.615Z,64.79
2018-05-27T04:02:49.761Z,64.69
2018-05-27T04:03:15.899Z,64.69
2018-05-27T04:03:42.072Z,64.98
2018-05-27T04:04:08.219Z,64.89
2018-05-27T04:04:34.385Z,64.5
2018-05-27T04:05:00.525Z,64.5
2018-05-27T04:05:26.667Z,64.12
2018-05-27T04:05:52.801Z,64.5
2018-05-27T04:06:18.948Z,64.69
2018-05-27T04:06:45.077Z,64.21
2018-05-27T04:07:11.241Z,64.59
2018-05-27T04:07:37.381Z,64.12
2018-05-27T04:08:03.547Z,64.21
2018-05-27T04:08:29.703Z,64.12
2018-05-27T04:08:55.843Z,64.21
2018-05-27T04:09:21.990Z,63.92
2018-05-27T04:09:48.128Z,64.12
2018-05-27T04:10:14.273Z,64.21
2018-05-27T04:10:40.403Z,64.4
2018-05-27T04:11:06.543Z,64.02
2018-05-27T04:11:32.686Z,64.02
2018-05-27T04:11:58.826Z,64.12
2018-05-27T04:12:24.960Z,64.21
2018-05-27T04:12:51.110Z,64.21
2018-05-27T04:13:17.272Z,64.21
2018-05-27T04:13:43.423Z,64.21
2018-05-27T04:14:09.563Z,64.21
2018-05-27T04:14:35.701Z,64.02
2018-05-27T04:15:01.845Z,64.21
2018-05-27T04:15:28.037Z,64.12
2018-05-27T04:15:54.179Z,64.21
2018-05-27T04:16:20.312Z,64.12
2018-05-27T04:16:46.455Z,64.31
2018-05-27T04:17:12.593Z,64.02
2018-05-27T04:17:38.738Z,64.21
2018-05-27T04:18:04.879Z,64.21
2018-05-27T04:18:31.017Z,64.21
2018-05-27T04:18:57.157Z,64.31
2018-05-27T04:19:23.297Z,64.21
2018-05-27T04:19:49.441Z,64.4
2018-05-27T04:20:15.578Z,64.12
2018-05-27T04:20:41.721Z,64.5
2018-05-27T04:21:07.886Z,64.98
2018-05-27T04:21:34.027Z,64.69
2018-05-27T04:22:00.171Z,64.98
2018-05-27T04:22:26.308Z,64.59
2018-05-27T04:22:52.451Z,64.59
2018-05-27T04:23:18.614Z,64.89
2018-05-27T04:23:44.766Z,64.5
2018-05-27T04:24:10.899Z,64.98
2018-05-27T04:24:37.040Z,64.5
2018-05-27T04:25:03.187Z,64.5
2018-05-27T04:25:29.327Z,65.37
2018-05-27T04:25:55.489Z,65.08
2018-05-27T04:26:21.632Z,65.14
2018-05-27T04:26:47.773Z,64.98
2018-05-27T04:27:13.957Z,65.08
2018-05-27T04:27:40.049Z,65.08
2018-05-27T04:28:06.186Z,64.98
2018-05-27T04:28:32.459Z,64.98
2018-05-27T04:28:58.492Z,65.17
2018-05-27T04:29:24.666Z,64.95
2018-05-27T04:29:50.793Z,65.05
2018-05-27T04:30:16.935Z,65.08
2018-05-27T04:30:43.071Z,65.08
2018-05-27T04:31:09.257Z,64.89
2018-05-27T04:31:35.421Z,64.98
2018-05-27T04:32:01.560Z,65.08
2018-05-27T04:32:27.697Z,65.46
2018-05-27T04:32:53.838Z,65.37
2018-05-27T04:33:19.977Z,65.27
2018-05-27T04:33:46.115Z,65.37
2018-05-27T04:34:12.254Z,65.37
2018-05-27T04:34:38.398Z,65.37
2018-05-27T04:35:04.541Z,65.17
2018-05-27T04:35:30.979Z,65.08
2018-05-27T04:35:57.258Z,64.98
2018-05-27T04:36:23.494Z,65.17
2018-05-27T04:36:49.637Z,65.37
2018-05-27T04:37:15.780Z,65.37
2018-05-27T04:37:41.936Z,64.98
2018-05-27T04:38:08.081Z,65.37
2018-05-27T04:38:34.247Z,64.4
2018-05-27T04:39:00.388Z,64.59
2018-05-27T04:39:26.522Z,64.79
2018-05-27T04:39:52.725Z,64.79
2018-05-27T04:40:18.867Z,64.89
2018-05-27T04:40:45.006Z,64.98
2018-05-27T04:41:11.171Z,64.89
2018-05-27T04:41:37.313Z,64.79
2018-05-27T04:42:03.448Z,64.98
2018-05-27T04:42:29.591Z,64.69
2018-05-27T04:42:55.727Z,64.69
2018-05-27T04:43:21.893Z,64.89
2018-05-27T04:43:48.042Z,64.79
2018-05-27T04:44:14.177Z,64.79
2018-05-27T04:44:40.318Z,64.98
2018-05-27T04:45:06.461Z,64.69
2018-05-27T04:45:32.637Z,64.25
2018-05-27T04:45:58.778Z,64.25
2018-05-27T04:46:24.947Z,64.34
2018-05-27T04:46:51.090Z,64.08
2018-05-27T04:47:17.232Z,62.93
2018-05-27T04:47:43.377Z,62.48
2018-05-27T04:48:09.523Z,61.44
2018-05-27T04:48:35.685Z,60.68
2018-05-27T04:49:01.828Z,60.68
2018-05-27T04:49:27.971Z,60.03
2018-05-27T04:49:54.106Z,59
2018-05-27T04:50:20.243Z,59
2018-05-27T04:50:46.377Z,58.51
2018-05-27T04:51:12.513Z,58.22
2018-05-27T04:51:38.653Z,57.19
2018-05-27T04:52:04.795Z,56.99
2018-05-27T04:52:30.939Z,56.99
2018-05-27T04:52:57.101Z,56.71
2018-05-27T04:53:23.293Z,57.29
2018-05-27T04:53:49.433Z,56.99
2018-05-27T04:54:15.573Z,56.99
2018-05-27T04:54:41.749Z,56.71
2018-05-27T04:55:07.881Z,56.51
2018-05-27T04:55:34.028Z,56.41
2018-05-27T04:56:00.165Z,56.8
2018-05-27T04:56:26.310Z,56.8
2018-05-27T04:56:52.442Z,57.29
2018-05-27T04:57:18.608Z,56.8
2018-05-27T04:57:44.770Z,56.8
2018-05-27T04:58:10.910Z,56.61
2018-05-27T04:58:37.054Z,57.19
2018-05-27T04:59:03.253Z,57.09
2018-05-27T04:59:29.332Z,57.45
2018-05-27T04:59:55.470Z,57.16
2018-05-27T05:00:21.604Z,56.99
2018-05-27T05:00:47.772Z,57.06
2018-05-27T05:01:13.909Z,56.96
2018-05-27T05:01:40.082Z,56.96
2018-05-27T05:02:06.223Z,57.35
2018-05-27T05:02:32.365Z,57.16
2018-05-27T05:02:58.506Z,57.45
2018-05-27T05:03:24.646Z,57.84
2018-05-27T05:03:50.776Z,58.12
2018-05-27T05:04:16.914Z,57.54
2018-05-27T05:04:43.053Z,57.45
2018-05-27T05:05:09.199Z,57.64
2018-05-27T05:05:35.338Z,58.58
2018-05-27T05:06:01.501Z,58.03
2018-05-27T05:06:27.644Z,58.32
2018-05-27T05:06:53.781Z,58.1
2018-05-27T05:07:19.919Z,58.1
2018-05-27T05:07:46.063Z,58.39
2018-05-27T05:08:12.242Z,58.39
2018-05-27T05:08:38.341Z,58.68
2018-05-27T05:09:04.483Z,58.58
2018-05-27T05:09:30.679Z,58.87
2018-05-27T05:09:56.794Z,58.68
2018-05-27T05:10:22.938Z,58.97
2018-05-27T05:10:49.083Z,58.87
2018-05-27T05:11:15.219Z,58.87
2018-05-27T05:11:41.385Z,59.06
2018-05-27T05:12:07.531Z,58.48
2018-05-27T05:12:33.663Z,59.16
2018-05-27T05:12:59.806Z,58.97
2018-05-27T05:13:25.948Z,59.35
2018-05-27T05:13:52.115Z,58.97
2018-05-27T05:14:18.259Z,59.16
2018-05-27T05:14:44.407Z,59.35
2018-05-27T05:15:10.564Z,59.25
2018-05-27T05:15:36.751Z,59.25
2018-05-27T05:16:02.915Z,59.16
2018-05-27T05:16:29.088Z,58.87
2018-05-27T05:16:55.244Z,58.97
2018-05-27T05:17:21.386Z,59.35
2018-05-27T05:17:47.539Z,59.93
2018-05-27T05:18:13.676Z,59.83
2018-05-27T05:18:39.823Z,59.45
2018-05-27T05:19:05.969Z,59.25
2018-05-27T05:19:32.114Z,59.16
2018-05-27T05:19:58.254Z,59.25
2018-05-27T05:20:24.414Z,59.25
2018-05-27T05:20:50.590Z,58.87
2018-05-27T05:21:16.724Z,58.77
2018-05-27T05:21:42.923Z,59.25
2018-05-27T05:22:09.059Z,58.87
2018-05-27T05:22:35.203Z,59.06
2018-05-27T05:23:01.362Z,59.16
2018-05-27T05:23:27.502Z,59.06
2018-05-27T05:23:53.650Z,59.16
2018-05-27T05:24:19.890Z,59.25
2018-05-27T05:24:45.971Z,59.16
2018-05-27T05:25:12.144Z,59.35
2018-05-27T05:25:38.283Z,59.93
2018-05-27T05:26:04.445Z,59.16
2018-05-27T05:26:30.616Z,59.93
2018-05-27T05:26:56.750Z,59.83
2018-05-27T05:27:22.912Z,59.83
2018-05-27T05:27:49.052Z,59.83
2018-05-27T05:28:15.195Z,59.55
2018-05-27T05:28:41.339Z,60.03
2018-05-27T05:29:07.500Z,59.64
2018-05-27T05:29:33.651Z,59.55
2018-05-27T05:29:59.796Z,59.64
2018-05-27T05:30:25.959Z,59.55
2018-05-27T05:30:52.105Z,59.64
2018-05-27T05:31:18.261Z,59.9
2018-05-27T05:31:44.402Z,60.22
2018-05-27T05:32:10.570Z,60.1
2018-05-27T05:32:36.705Z,60.68
2018-05-27T05:33:02.867Z,60.38
2018-05-27T05:33:29.013Z,60.13
2018-05-27T05:33:55.150Z,60.38
2018-05-27T05:34:21.320Z,60.77
2018-05-27T05:34:47.514Z,60.48
2018-05-27T05:35:13.637Z,60.61
2018-05-27T05:35:39.810Z,60.86
2018-05-27T05:36:05.970Z,60.68
2018-05-27T05:36:32.101Z,60.61
2018-05-27T05:36:58.247Z,60.48
2018-05-27T05:37:24.407Z,60.86
2018-05-27T05:37:50.577Z,61.54
2018-05-27T05:38:16.739Z,61.64